createdAt,value
2022-09-24T00:00:12.909Z,93823.63
2022-09-24T00:02:40.552Z,93828.22
2022-09-24T00:05:08.909Z,93820.13
2022-09-24T00:07:36.462Z,93821.19
2022-09-24T00:10:06.054Z,93820.38
2022-09-24T00:12:34.718Z,93821.47
2022-09-24T00:15:03.406Z,93812.78
2022-09-24T00:17:30.985Z,93815.50
2022-09-24T00:19:58.549Z,93814.69
2022-09-24T00:22:26.074Z,93814.97
2022-09-24T00:25:11.063Z,93814.13
2022-09-24T00:27:39.989Z,93806.84
2022-09-24T00:30:08.478Z,93794.38
2022-09-24T00:32:36.034Z,93809.81
2022-09-24T00:35:03.639Z,93798.19
2022-09-24T00:37:31.167Z,93804.41
2022-09-24T00:39:58.687Z,93793.84
2022-09-24T00:42:26.250Z,93794.66
2022-09-24T00:44:56.081Z,93790.31
2022-09-24T00:47:34.617Z,93792.22
2022-09-24T00:50:09.107Z,93794.94
2022-09-24T00:52:37.248Z,93792.50
2022-09-24T00:55:05.049Z,93787.88
2022-09-24T00:57:32.764Z,93784.63
2022-09-24T01:00:01.799Z,93783.84
2022-09-24T01:02:30.879Z,93777.59
2022-09-24T01:04:58.442Z,93781.13
2022-09-24T01:07:26.385Z,93776.78
2022-09-24T01:09:53.957Z,93777.59
2022-09-24T01:12:28.829Z,93767.84
2022-09-24T01:15:06.309Z,93775.97
2022-09-24T01:17:37.005Z,93774.59
2022-09-24T01:20:39.705Z,93766.22
2022-09-24T01:23:15.289Z,93773.56
2022-09-24T01:25:46.873Z,93768.13
2022-09-24T01:28:30.267Z,93760.00
2022-09-24T01:31:00.516Z,93753.78
2022-09-24T01:33:28.245Z,93754.84
2022-09-24T01:35:56.888Z,93756.47
2022-09-24T01:38:26.796Z,93750.25
2022-09-24T01:40:54.432Z,93752.16
2022-09-24T01:43:25.386Z,93750.53
2022-09-24T01:45:52.938Z,93751.63
2022-09-24T01:48:22.454Z,93738.88
2022-09-24T01:50:52.786Z,93738.88
2022-09-24T01:53:29.963Z,93747.00
2022-09-24T01:55:59.877Z,93742.41
2022-09-24T01:58:29.244Z,93736.47
2022-09-24T02:00:58.976Z,93741.88
2022-09-24T02:03:29.754Z,93736.47
2022-09-24T02:05:59.585Z,93729.44
2022-09-24T02:08:29.342Z,93724.81
2022-09-24T02:10:58.642Z,93722.09
2022-09-24T02:13:27.594Z,93717.78
2022-09-24T02:15:56.532Z,93722.41
2022-09-24T02:18:25.020Z,93707.22
2022-09-24T02:20:54.217Z,93708.88
2022-09-24T02:23:21.858Z,93711.56
2022-09-24T02:25:51.550Z,93716.16
2022-09-24T02:28:19.229Z,93706.41
2022-09-24T02:30:48.541Z,93709.13
2022-09-24T02:33:30.002Z,93706.41
2022-09-24T02:35:59.005Z,93703.72
2022-09-24T02:38:26.566Z,93699.38
2022-09-24T02:40:54.531Z,93702.88
2022-09-24T02:43:22.229Z,93703.72
2022-09-24T02:45:49.759Z,93709.38
2022-09-24T02:48:17.301Z,93705.88
2022-09-24T02:50:44.849Z,93705.06
2022-09-24T02:53:13.874Z,93702.34
2022-09-24T02:55:41.412Z,93699.63
2022-09-24T02:58:08.974Z,93702.34
2022-09-24T03:00:36.573Z,93700.72
2022-09-24T03:03:04.276Z,93698.84
2022-09-24T03:05:31.928Z,93696.41
2022-09-24T03:08:00.051Z,93699.09
2022-09-24T03:10:29.024Z,93704.50
2022-09-24T03:12:56.725Z,93708.03
2022-09-24T03:15:24.282Z,93702.91
2022-09-24T03:17:51.901Z,93706.44
2022-09-24T03:20:19.421Z,93709.94
2022-09-24T03:22:47.900Z,93704.50
2022-09-24T03:25:15.579Z,93706.44
2022-09-24T03:27:44.477Z,93714.53
2022-09-24T03:30:30.557Z,93705.59
2022-09-24T03:32:58.104Z,93706.69
2022-09-24T03:35:25.662Z,93707.47
2022-09-24T03:37:53.233Z,93695.88
2022-09-24T03:40:20.830Z,93690.44
2022-09-24T03:42:49.775Z,93689.63
2022-09-24T03:45:17.533Z,93694.25
2022-09-24T03:47:45.069Z,93685.03
2022-09-24T03:50:12.639Z,93680.72
2022-09-24T03:52:40.293Z,93669.88
2022-09-24T03:55:08.757Z,93662.84
2022-09-24T03:57:36.292Z,93677.19
2022-09-24T04:00:05.819Z,93673.38
2022-09-24T04:02:33.391Z,93676.09
2022-09-24T04:05:01.002Z,93674.47
2022-09-24T04:07:28.520Z,93675.31
2022-09-24T04:09:56.106Z,93674.47
2022-09-24T04:12:23.730Z,93672.84
2022-09-24T04:14:51.281Z,93669.34
2022-09-24T04:17:20.192Z,93666.66
2022-09-24T04:19:47.725Z,93669.34
2022-09-24T04:22:15.273Z,93666.66
2022-09-24T04:24:42.799Z,93665.81
2022-09-24T04:27:10.382Z,93659.31
2022-09-24T04:29:38.006Z,93662.31
2022-09-24T04:32:05.557Z,93667.72
2022-09-24T04:34:34.488Z,93671.22
2022-09-24T04:37:02.028Z,93663.13
2022-09-24T04:39:29.558Z,93665.03
2022-09-24T04:41:57.119Z,93656.91
2022-09-24T04:44:24.684Z,93661.50
2022-09-24T04:46:52.313Z,93651.75
2022-09-24T04:49:19.935Z,93651.75
2022-09-24T04:51:48.898Z,93649.88
2022-09-24T04:54:18.099Z,93645.53
2022-09-24T04:56:45.634Z,93645.53
2022-09-24T04:59:13.186Z,93636.59
2022-09-24T05:01:40.855Z,93652.84
2022-09-24T05:04:08.556Z,93667.16
2022-09-24T05:06:36.207Z,93652.84
2022-09-24T05:09:08.931Z,93655.53
2022-09-24T05:11:39.272Z,93650.94
2022-09-24T05:14:07.148Z,93644.72
2022-09-24T05:16:35.062Z,93645.53
2022-09-24T05:19:04.801Z,93648.50
2022-09-24T05:21:32.459Z,93649.31
2022-09-24T05:24:00.173Z,93649.31
2022-09-24T05:26:46.401Z,93652.00
2022-09-24T05:29:14.044Z,93655.53
2022-09-24T05:31:41.692Z,93650.41
2022-09-24T05:34:09.317Z,93649.59
2022-09-24T05:36:37.063Z,93660.13
2022-09-24T05:39:04.875Z,93655.81
2022-09-24T05:41:33.966Z,93656.63
2022-09-24T05:44:01.985Z,93654.19
2022-09-24T05:46:29.980Z,93655.81
2022-09-24T05:48:57.877Z,93663.94
2022-09-24T05:51:25.482Z,93659.59
2022-09-24T05:53:53.004Z,93665.84
2022-09-24T05:56:20.549Z,93671.25
2022-09-24T05:58:50.964Z,93666.63
2022-09-24T06:01:18.483Z,93659.59
2022-09-24T06:03:46.031Z,93663.94
2022-09-24T06:06:13.588Z,93665.84
2022-09-24T06:08:41.352Z,93664.22
2022-09-24T06:11:09.508Z,93664.22
2022-09-24T06:13:37.059Z,93661.22
2022-09-24T06:16:07.410Z,93656.09
2022-09-24T06:18:35.550Z,93654.47
2022-09-24T06:21:03.757Z,93660.69
2022-09-24T06:23:31.473Z,93662.59
2022-09-24T06:25:58.998Z,93657.97
2022-09-24T06:28:26.547Z,93662.59
2022-09-24T06:30:54.319Z,93662.59
2022-09-24T06:33:23.347Z,93671.78
2022-09-24T06:35:50.932Z,93676.13
2022-09-24T06:38:19.042Z,93685.31
2022-09-24T06:40:48.336Z,93678.81
2022-09-24T06:43:18.161Z,93676.13
2022-09-24T06:45:45.805Z,93674.22
2022-09-24T06:48:14.049Z,93679.91
2022-09-24T06:50:43.635Z,93681.78
2022-09-24T06:53:11.365Z,93692.59
2022-09-24T06:55:39.266Z,93694.22
2022-09-24T06:58:07.806Z,93685.56
2022-09-24T07:00:35.575Z,93691.53
2022-09-24T07:03:03.317Z,93698.84
2022-09-24T07:05:30.847Z,93706.97
2022-09-24T07:07:59.737Z,93697.19
2022-09-24T07:10:27.951Z,93709.66
2022-09-24T07:12:55.538Z,93707.22
2022-09-24T07:15:23.157Z,93708.84
2022-09-24T07:17:50.868Z,93709.94
2022-09-24T07:20:18.966Z,93714.25
2022-09-24T07:22:46.488Z,93706.41
2022-09-24T07:25:15.426Z,93713.44
2022-09-24T07:27:43.084Z,93714.25
2022-09-24T07:30:13.622Z,93718.84
2022-09-24T07:32:41.165Z,93716.97
2022-09-24T07:35:09.094Z,93718.84
2022-09-24T07:37:36.621Z,93712.63
2022-09-24T07:40:04.268Z,93730.50
2022-09-24T07:42:33.196Z,93729.94
2022-09-24T07:45:00.877Z,93734.28
2022-09-24T07:47:28.469Z,93736.16
2022-09-24T07:49:55.998Z,93738.59
2022-09-24T07:52:23.574Z,93735.91
2022-09-24T07:54:52.258Z,93742.38
2022-09-24T07:57:19.824Z,93743.19
2022-09-24T07:59:48.697Z,93741.31
2022-09-24T08:02:17.220Z,93740.47
2022-09-24T08:04:44.831Z,93749.69
2022-09-24T08:07:12.532Z,93749.69
2022-09-24T08:09:40.076Z,93749.69
2022-09-24T08:12:07.901Z,93753.47
2022-09-24T08:14:35.428Z,93752.69
2022-09-24T08:17:04.340Z,93755.38
2022-09-24T08:19:33.192Z,93753.47
2022-09-24T08:22:00.802Z,93760.78
2022-09-24T08:24:28.497Z,93755.38
2022-09-24T08:26:56.051Z,93755.38
2022-09-24T08:29:23.590Z,93756.19
2022-09-24T08:31:51.206Z,93757.00
2022-09-24T08:34:20.152Z,93754.28
2022-09-24T08:36:47.737Z,93754.28
2022-09-24T08:39:15.547Z,93749.69
2022-09-24T08:41:53.576Z,93761.34
2022-09-24T08:44:36.652Z,93757.78
2022-09-24T08:47:22.321Z,93765.91
2022-09-24T08:49:53.901Z,93760.50
2022-09-24T08:52:30.547Z,93762.41
2022-09-24T08:54:58.093Z,93765.91
2022-09-24T08:57:26.097Z,93765.91
2022-09-24T08:59:53.858Z,93765.91
2022-09-24T09:02:35.150Z,93770.53
2022-09-24T09:05:07.835Z,93768.63
2022-09-24T09:07:39.727Z,93769.44
2022-09-24T09:10:10.828Z,93771.31
2022-09-24T09:12:39.883Z,93776.75
2022-09-24T09:15:08.258Z,93771.06
2022-09-24T09:17:42.077Z,93772.94
2022-09-24T09:20:17.014Z,93769.44
2022-09-24T09:22:46.019Z,93769.19
2022-09-24T09:25:21.777Z,93776.47
2022-09-24T09:27:54.393Z,93774.59
2022-09-24T09:30:22.729Z,93766.75
2022-09-24T09:33:01.961Z,93770.25
2022-09-24T09:35:35.384Z,93771.31
2022-09-24T09:38:05.521Z,93780.28
2022-09-24T09:40:35.097Z,93781.34
2022-09-24T09:43:06.137Z,93784.06
2022-09-24T09:45:37.093Z,93782.44
2022-09-24T09:48:04.705Z,93780.53
2022-09-24T09:50:36.812Z,93784.06
2022-09-24T09:53:04.819Z,93778.66
2022-09-24T09:55:33.224Z,93777.03
2022-09-24T09:58:16.821Z,93780.53
2022-09-24T10:00:46.916Z,93777.03
2022-09-24T10:03:22.846Z,93779.72
2022-09-24T10:05:57.957Z,93772.69
2022-09-24T10:08:25.655Z,93774.31
2022-09-24T10:10:55.237Z,93781.34
2022-09-24T10:13:22.830Z,93778.66
2022-09-24T10:15:50.912Z,93777.03
2022-09-24T10:18:18.502Z,93774.31
2022-09-24T10:20:48.131Z,93775.13
2022-09-24T10:23:19.652Z,93777.56
2022-09-24T10:25:51.659Z,93775.41
2022-09-24T10:28:40.819Z,93771.63
2022-09-24T10:31:12.470Z,93774.06
2022-09-24T10:33:40.793Z,93776.22
2022-09-24T10:36:09.415Z,93767.84
2022-09-24T10:38:38.299Z,93774.63
2022-09-24T10:41:15.936Z,93773.25
2022-09-24T10:43:51.250Z,93770.56
2022-09-24T10:46:28.550Z,93777.34
2022-09-24T10:48:59.082Z,93771.91
2022-09-24T10:51:30.808Z,93777.34
2022-09-24T10:54:10.349Z,93771.91
2022-09-24T10:56:43.559Z,93764.06
2022-09-24T10:59:33.614Z,93770.28
2022-09-24T11:02:10.550Z,93768.63
2022-09-24T11:04:46.599Z,93767.31
2022-09-24T11:07:27.161Z,93772.97
2022-09-24T11:09:57.894Z,93774.06
2022-09-24T11:12:27.845Z,93773.78
2022-09-24T11:15:05.199Z,93774.31
2022-09-24T11:17:34.261Z,93778.38
2022-09-24T11:20:22.110Z,93778.66
2022-09-24T11:22:57.585Z,93787.06
2022-09-24T11:25:31.520Z,93777.81
2022-09-24T11:28:05.683Z,93779.16
2022-09-24T11:30:36.055Z,93774.31
2022-09-24T11:33:11.698Z,93782.97
2022-09-24T11:35:53.795Z,93776.97
2022-09-24T11:38:23.700Z,93776.72
2022-09-24T11:41:10.208Z,93773.72
2022-09-24T11:43:49.349Z,93767.19
2022-09-24T11:46:23.859Z,93762.34
2022-09-24T11:48:58.900Z,93762.38
2022-09-24T11:51:30.287Z,93761.28
2022-09-24T11:53:59.548Z,93756.69
2022-09-24T11:56:31.962Z,93752.91
2022-09-24T11:59:01.065Z,93752.09
2022-09-24T12:01:29.852Z,93746.41
2022-09-24T12:03:58.411Z,93755.91
2022-09-24T12:06:28.575Z,93751.06
2022-09-24T12:08:57.654Z,93747.22
2022-09-24T12:11:28.134Z,93746.69
2022-09-24T12:13:59.085Z,93737.19
2022-09-24T12:16:27.946Z,93738.59
2022-09-24T12:18:57.493Z,93745.09
2022-09-24T12:21:28.048Z,93742.91
2022-09-24T12:24:02.643Z,93739.66
2022-09-24T12:26:31.122Z,93741.03
2022-09-24T12:29:34.003Z,93742.91
2022-09-24T12:32:21.715Z,93733.72
2022-09-24T12:34:52.065Z,93739.16
2022-09-24T12:37:21.757Z,93740.22
2022-09-24T12:39:51.278Z,93735.06
2022-09-24T12:42:18.816Z,93734.53
2022-09-24T12:44:49.866Z,93730.22
2022-09-24T12:47:20.137Z,93716.13
2022-09-24T12:49:50.195Z,93719.09
2022-09-24T12:52:18.448Z,93717.50
2022-09-24T12:54:45.997Z,93715.88
2022-09-24T12:57:14.854Z,93728.59
2022-09-24T12:59:51.266Z,93733.19
2022-09-24T13:02:20.293Z,93726.69
2022-09-24T13:04:52.135Z,93725.06
2022-09-24T13:07:33.986Z,93724.53
2022-09-24T13:10:23.898Z,93724.25
2022-09-24T13:12:51.899Z,93720.75
2022-09-24T13:15:28.329Z,93713.72
2022-09-24T13:18:04.249Z,93713.41
2022-09-24T13:20:32.142Z,93711.25
2022-09-24T13:23:00.644Z,93722.63
2022-09-24T13:25:28.690Z,93712.09
2022-09-24T13:28:01.384Z,93715.59
2022-09-24T13:30:38.093Z,93714.81
2022-09-24T13:33:10.818Z,93711.00
2022-09-24T13:35:43.373Z,93707.47
2022-09-24T13:38:16.916Z,93707.47
2022-09-24T13:40:46.257Z,93711.25
2022-09-24T13:43:15.818Z,93706.13
2022-09-24T13:45:45.114Z,93706.63
2022-09-24T13:48:16.765Z,93712.06
2022-09-24T13:50:45.609Z,93713.09
2022-09-24T13:53:17.575Z,93706.63
2022-09-24T13:55:45.842Z,93711.22
2022-09-24T13:58:27.687Z,93713.66
2022-09-24T14:00:57.413Z,93708.75
2022-09-24T14:03:26.581Z,93703.84
2022-09-24T14:05:54.161Z,93696.78
2022-09-24T14:08:22.377Z,93699.47
2022-09-24T14:10:50.977Z,93703.78
2022-09-24T14:13:21.612Z,93703.50
2022-09-24T14:15:57.433Z,93698.88
2022-09-24T14:18:25.677Z,93697.81
2022-09-24T14:20:56.491Z,93702.13
2022-09-24T14:23:25.328Z,93697.50
2022-09-24T14:25:52.887Z,93689.59
2022-09-24T14:28:20.456Z,93689.34
2022-09-24T14:30:52.203Z,93695.03
2022-09-24T14:33:21.746Z,93693.94
2022-09-24T14:35:50.007Z,93698.25
2022-09-24T14:38:19.373Z,93703.69
2022-09-24T14:40:48.361Z,93698.78
2022-09-24T14:43:18.780Z,93704.47
2022-09-24T14:45:46.936Z,93693.88
2022-09-24T14:48:19.779Z,93703.94
2022-09-24T14:50:48.704Z,93697.72
2022-09-24T14:53:22.159Z,93697.19
2022-09-24T14:55:49.810Z,93695.59
2022-09-24T14:58:24.878Z,93693.19
2022-09-24T15:00:55.390Z,93693.22
2022-09-24T15:03:27.822Z,93695.66
2022-09-24T15:06:08.236Z,93693.50
2022-09-24T15:08:36.050Z,93692.44
2022-09-24T15:11:15.302Z,93696.78
2022-09-24T15:13:42.855Z,93691.41
2022-09-24T15:16:19.377Z,93693.28
2022-09-24T15:18:58.675Z,93688.44
2022-09-24T15:21:27.856Z,93690.06
2022-09-24T15:23:56.825Z,93696.84
2022-09-24T15:26:26.482Z,93691.69
2022-09-24T15:28:55.987Z,93693.88
2022-09-24T15:31:24.157Z,93687.13
2022-09-24T15:33:51.834Z,93691.16
2022-09-24T15:36:21.105Z,93689.53
2022-09-24T15:38:50.053Z,93683.28
2022-09-24T15:41:17.724Z,93686.81
2022-09-24T15:43:45.353Z,93686.28
2022-09-24T15:46:13.035Z,93685.75
2022-09-24T15:48:40.628Z,93691.44
2022-09-24T15:51:14.977Z,93680.06
2022-09-24T15:53:43.141Z,93684.16
2022-09-24T15:56:12.252Z,93678.44
2022-09-24T15:58:40.054Z,93687.66
2022-09-24T16:01:07.843Z,93676.84
2022-09-24T16:03:35.382Z,93669.53
2022-09-24T16:06:03.311Z,93679.53
2022-09-24T16:08:30.871Z,93676.28
2022-09-24T16:10:58.724Z,93671.66
2022-09-24T16:13:27.752Z,93663.28
2022-09-24T16:15:55.384Z,93669.19
2022-09-24T16:18:25.914Z,93670.25
2022-09-24T16:20:53.541Z,93678.09
2022-09-24T16:23:21.093Z,93666.41
2022-09-24T16:25:55.824Z,93666.69
2022-09-24T16:28:23.481Z,93665.84
2022-09-24T16:30:52.488Z,93672.06
2022-09-24T16:33:20.060Z,93669.59
2022-09-24T16:35:47.757Z,93671.75
2022-09-24T16:38:20.273Z,93675.81
2022-09-24T16:40:51.964Z,93670.09
2022-09-24T16:43:19.697Z,93668.75
2022-09-24T16:45:47.333Z,93679.28
2022-09-24T16:48:16.580Z,93670.63
2022-09-24T16:50:44.173Z,93681.69
2022-09-24T16:53:11.873Z,93676.25
2022-09-24T16:55:39.481Z,93681.94
2022-09-24T16:58:07.027Z,93674.63
2022-09-24T17:00:34.612Z,93680.31
2022-09-24T17:03:02.244Z,93679.22
2022-09-24T17:05:34.087Z,93677.34
2022-09-24T17:08:01.982Z,93676.25
2022-09-24T17:10:51.604Z,93680.59
2022-09-24T17:13:40.391Z,93678.94
2022-09-24T17:16:28.378Z,93680.53
2022-09-24T17:18:56.117Z,93678.34
2022-09-24T17:21:25.001Z,93684.59
2022-09-24T17:23:52.648Z,93680.53
2022-09-24T17:26:21.285Z,93687.84
2022-09-24T17:28:51.668Z,93681.84
2022-09-24T17:31:21.258Z,93679.13
2022-09-24T17:33:48.978Z,93679.13
2022-09-24T17:36:16.657Z,93682.69
2022-09-24T17:38:45.571Z,93680.75
2022-09-24T17:41:13.808Z,93684.28
2022-09-24T17:43:41.899Z,93685.91
2022-09-24T17:46:14.141Z,93688.34
2022-09-24T17:48:44.374Z,93689.44
2022-09-24T17:51:12.946Z,93689.97
2022-09-24T17:53:40.623Z,93691.06
2022-09-24T17:56:11.326Z,93685.34
2022-09-24T17:58:39.609Z,93691.88
2022-09-24T18:01:08.261Z,93696.19
2022-09-24T18:03:35.838Z,93695.94
2022-09-24T18:06:03.641Z,93690.50
2022-09-24T18:08:31.219Z,93694.84
2022-09-24T18:11:02.741Z,93700.78
2022-09-24T18:13:34.927Z,93701.88
2022-09-24T18:16:04.135Z,93696.19
2022-09-24T18:18:31.735Z,93688.03
2022-09-24T18:21:01.076Z,93693.16
2022-09-24T18:23:28.993Z,93694.56
2022-09-24T18:25:57.144Z,93696.97
2022-09-24T18:28:25.179Z,93704.59
2022-09-24T18:31:06.020Z,93707.81
2022-09-24T18:33:33.743Z,93713.25
2022-09-24T18:36:05.138Z,93707.81
2022-09-24T18:38:33.030Z,93712.47
2022-09-24T18:41:01.707Z,93709.44
2022-09-24T18:43:31.135Z,93705.94
2022-09-24T18:46:05.121Z,93713.78
2022-09-24T18:48:33.345Z,93720.31
2022-09-24T18:51:01.157Z,93719.50
2022-09-24T18:53:31.373Z,93710.53
2022-09-24T18:55:59.773Z,93719.22
2022-09-24T18:58:27.330Z,93718.69
2022-09-24T19:00:59.098Z,93715.97
2022-09-24T19:03:28.330Z,93716.50
2022-09-24T19:05:56.950Z,93717.31
2022-09-24T19:08:24.811Z,93722.50
2022-09-24T19:10:53.253Z,93718.97
2022-09-24T19:13:25.987Z,93715.72
2022-09-24T19:15:54.009Z,93722.00
2022-09-24T19:18:21.890Z,93717.41
2022-09-24T19:20:50.926Z,93713.88
2022-09-24T19:23:18.513Z,93705.75
2022-09-24T19:25:46.102Z,93713.34
2022-09-24T19:28:13.734Z,93712.81
2022-09-24T19:30:42.005Z,93709.03
2022-09-24T19:33:09.805Z,93712.81
2022-09-24T19:35:37.649Z,93706.03
2022-09-24T19:38:06.605Z,93712.00
2022-09-24T19:40:34.274Z,93709.81
2022-09-24T19:43:03.030Z,93706.81
2022-09-24T19:45:31.213Z,93712.19
2022-09-24T19:47:59.279Z,93711.94
2022-09-24T19:50:26.965Z,93714.41
2022-09-24T19:52:55.869Z,93713.56
2022-09-24T19:55:28.520Z,93714.66
2022-09-24T19:57:56.433Z,93708.13
2022-09-24T20:00:24.986Z,93708.13
2022-09-24T20:02:52.663Z,93710.84
2022-09-24T20:05:20.409Z,93704.88
2022-09-24T20:07:49.433Z,93706.78
2022-09-24T20:10:16.973Z,93705.97
2022-09-24T20:12:48.942Z,93703.50
2022-09-24T20:15:16.586Z,93710.03
2022-09-24T20:17:44.124Z,93698.06
2022-09-24T20:20:11.658Z,93699.69
2022-09-24T20:22:39.243Z,93702.13
2022-09-24T20:25:07.797Z,93706.19
2022-09-24T20:27:52.812Z,93708.09
2022-09-24T20:30:23.827Z,93701.84
2022-09-24T20:32:51.572Z,93705.63
2022-09-24T20:35:19.201Z,93707.25
2022-09-24T20:37:47.334Z,93707.56
2022-09-24T20:40:15.120Z,93701.03
2022-09-24T20:42:42.740Z,93703.47
2022-09-24T20:45:10.546Z,93694.00
2022-09-24T20:47:39.522Z,93701.59
2022-09-24T20:50:08.317Z,93698.88
2022-09-24T20:52:36.021Z,93705.13
2022-09-24T20:55:03.656Z,93699.72
2022-09-24T20:57:31.309Z,93702.41
2022-09-24T20:59:58.889Z,93705.66
2022-09-24T21:02:26.568Z,93704.03
2022-09-24T21:04:55.623Z,93716.22
2022-09-24T21:07:23.174Z,93714.34
2022-09-24T21:09:50.766Z,93714.06
2022-09-24T21:12:18.336Z,93722.47
2022-09-24T21:14:45.891Z,93719.75
2022-09-24T21:17:13.888Z,93720.81
2022-09-24T21:19:41.630Z,93715.97
2022-09-24T21:22:10.710Z,93715.16
2022-09-24T21:24:39.497Z,93719.75
2022-09-24T21:27:07.852Z,93714.88
2022-09-24T21:29:35.409Z,93713.78
2022-09-24T21:32:03.530Z,93714.88
2022-09-24T21:34:31.170Z,93722.22
2022-09-24T21:36:58.728Z,93712.19
2022-09-24T21:39:28.410Z,93708.09
2022-09-24T21:41:59.175Z,93709.19
2022-09-24T21:44:31.910Z,93712.44
2022-09-24T21:46:59.599Z,93715.41
2022-09-24T21:49:27.470Z,93706.75
2022-09-24T21:51:57.576Z,93707.28
2022-09-24T21:54:25.338Z,93711.34
2022-09-24T21:56:55.321Z,93711.91
2022-09-24T21:59:40.560Z,93708.09
2022-09-24T22:02:08.580Z,93709.97
2022-09-24T22:04:36.301Z,93702.13
2022-09-24T22:07:03.906Z,93713.50
2022-09-24T22:09:32.148Z,93709.19
2022-09-24T22:12:01.665Z,93702.13
2022-09-24T22:14:29.392Z,93704.31
2022-09-24T22:16:57.230Z,93701.59
2022-09-24T22:19:24.836Z,93699.72
2022-09-24T22:21:52.769Z,93699.13
2022-09-24T22:24:20.376Z,93697.50
2022-09-24T22:26:48.265Z,93698.06
2022-09-24T22:29:17.244Z,93689.69
2022-09-24T22:31:44.842Z,93687.00
2022-09-24T22:34:29.790Z,93688.38
2022-09-24T22:36:57.327Z,93686.50
2022-09-24T22:39:24.986Z,93681.13
2022-09-24T22:41:52.644Z,93683.03
2022-09-24T22:44:21.529Z,93679.53
2022-09-24T22:46:49.057Z,93677.41
2022-09-24T22:49:16.705Z,93680.94
2022-09-24T22:51:44.474Z,93680.69
2022-09-24T22:54:12.784Z,93679.91
2022-09-24T22:56:40.457Z,93674.50
2022-09-24T22:59:08.003Z,93667.72
2022-09-24T23:01:40.295Z,93664.78
2022-09-24T23:04:08.184Z,93666.94
2022-09-24T23:06:35.711Z,93669.13
2022-09-24T23:09:03.290Z,93662.38
2022-09-24T23:11:31.516Z,93666.44
2022-09-24T23:14:00.048Z,93676.75
2022-09-24T23:16:28.601Z,93671.91
2022-09-24T23:18:58.516Z,93677.59
2022-09-24T23:21:27.634Z,93674.06
2022-09-24T23:23:55.479Z,93672.72
2022-09-24T23:26:23.807Z,93673.00
2022-09-24T23:28:52.669Z,93678.41
2022-09-24T23:31:21.910Z,93678.69
2022-09-24T23:33:49.633Z,93680.84
2022-09-24T23:36:18.730Z,93683.03
2022-09-24T23:38:46.314Z,93685.75
2022-09-24T23:41:14.346Z,93674.38
2022-09-24T23:43:42.281Z,93682.75
2022-09-24T23:46:10.090Z,93679.22
2022-09-24T23:48:38.038Z,93684.13
2022-09-24T23:51:05.657Z,93685.22
2022-09-24T23:53:34.842Z,93699.00
2022-09-24T23:56:03.080Z,93697.41
2022-09-24T23:58:30.591Z,93688.44
